Time;durP1;ratioP1;P1;durP2;ratioP2;P2;SDS_P1;SDS_P2;PMS_P1;PMS_P2;Temp;Humidity;BMP_temperature;BMP_pressure;BME280_temperature;BME280_humidity;BME280_pressure;Samples;Min_cycle;Max_cycle;Signal;HPM_P1;HPM_P2
2021/10/08 00:02:00;;;;;;;0.20;0.20;;;;;;;;;;4994035;28;20483;-83
2021/10/08 00:04:26;;;;;;;0.10;0.10;;;;;;;;;;4993353;28;20041;-82
2021/10/08 00:06:52;;;;;;;0.10;0.10;;;;;;;;;;4997329;28;20410;-82
2021/10/08 00:09:18;;;;;;;0.10;0.10;;;;;;;;;;4993243;28;20061;-83
2021/10/08 00:11:44;;;;;;;0.10;0.10;;;;;;;;;;4991906;28;20047;-83
2021/10/08 00:14:10;;;;;;;1.02;0.75;;;;;;;;;;4995216;28;20305;-83
2021/10/08 00:16:36;;;;;;;0.20;0.20;;;;;;;;;;4996071;28;20030;-83
2021/10/08 00:19:03;;;;;;;0.27;0.27;;;;;;;;;;4995990;28;20209;-85
2021/10/08 00:21:29;;;;;;;0.20;0.13;;;;;;;;;;4993165;28;20026;-84
2021/10/08 00:23:55;;;;;;;0.10;0.10;;;;;;;;;;5009247;28;20116;-83
2021/10/08 00:26:21;;;;;;;1.20;0.93;;;;;;;;;;4994830;28;20128;-83
2021/10/08 00:28:47;;;;;;;0.47;0.35;;;;;;;;;;4993081;28;20058;-83
2021/10/08 00:31:13;;;;;;;0.20;0.20;;;;;;;;;;4994470;28;20023;-83
2021/10/08 00:33:39;;;;;;;0.10;0.10;;;;;;;;;;4998837;28;20049;-82
2021/10/08 00:36:05;;;;;;;0.20;0.20;;;;;;;;;;4995337;28;20649;-83
2021/10/08 00:38:31;;;;;;;0.10;0.10;;;;;;;;;;4991339;28;20398;-82
2021/10/08 00:40:57;;;;;;;0.07;0.07;;;;;;;;;;4991513;28;20042;-83
2021/10/08 00:43:23;;;;;;;0.15;0.15;;;;;;;;;;4994646;28;20333;-83
2021/10/08 00:45:50;;;;;;;0.22;0.22;;;;;;;;;;4991059;28;20032;-83
2021/10/08 00:48:16;;;;;;;0.20;0.20;;;;;;;;;;4990745;28;20419;-82
2021/10/08 00:50:45;;;;;;;0.10;0.10;;;;;;;;;;4994034;28;20038;-83
2021/10/08 00:53:11;;;;;;;0.10;0.10;;;;;;;;;;4993719;28;20046;-82
2021/10/08 00:55:41;;;;;;;0.28;0.28;;;;;;;;;;4990629;28;20050;-83
2021/10/08 00:58:08;;;;;;;0.20;0.20;;;;;;;;;;4993334;28;20038;-82
2021/10/08 01:00:34;;;;;;;0.20;0.20;;;;;;;;;;4996738;28;20605;-82
2021/10/08 01:03:02;;;;;;;0.55;0.55;;;;;;;;;;4992864;28;20564;-82
2021/10/08 01:05:28;;;;;;;0.17;0.17;;;;;;;;;;4993385;28;20370;-82
2021/10/08 01:07:53;;;;;;;0.13;0.13;;;;;;;;;;4995073;28;20601;-83
2021/10/08 01:10:19;;;;;;;0.10;0.10;;;;;;;;;;4999904;28;20036;-82
2021/10/08 01:12:46;;;;;;;0.20;0.20;;;;;;;;;;4997369;28;20086;-82
2021/10/08 01:15:12;;;;;;;4.03;0.50;;;;;;;;;;4996880;28;20034;-83
2021/10/08 01:17:38;;;;;;;0.10;0.10;;;;;;;;;;4998706;28;20042;-83
2021/10/08 01:20:08;;;;;;;0.13;0.13;;;;;;;;;;4991188;28;20696;-83
2021/10/08 01:22:34;;;;;;;0.22;0.22;;;;;;;;;;4991561;28;20025;-83
2021/10/08 01:25:00;;;;;;;0.73;0.57;;;;;;;;;;4993905;28;20033;-83
2021/10/08 01:27:26;;;;;;;0.35;0.30;;;;;;;;;;4990584;28;20286;-83
2021/10/08 01:29:54;;;;;;;0.10;0.10;;;;;;;;;;4995319;28;20037;-82
2021/10/08 01:32:21;;;;;;;0.00;0.00;;;;;;;;;;4994572;28;20030;-83
2021/10/08 01:34:47;;;;;;;0.47;0.47;;;;;;;;;;4991479;28;20045;-82
2021/10/08 01:37:14;;;;;;;0.10;0.10;;;;;;;;;;4992575;28;20034;-82
2021/10/08 01:39:40;;;;;;;0.47;0.30;;;;;;;;;;4992244;28;20045;-82
2021/10/08 01:42:06;;;;;;;0.10;0.10;;;;;;;;;;4989134;28;20457;-82
2021/10/08 01:44:32;;;;;;;0.10;0.10;;;;;;;;;;4991079;28;20026;-82
2021/10/08 01:46:58;;;;;;;0.10;0.10;;;;;;;;;;4990400;28;20045;-82
2021/10/08 01:49:24;;;;;;;0.20;0.20;;;;;;;;;;4991459;28;20145;-83
2021/10/08 01:51:50;;;;;;;0.20;0.20;;;;;;;;;;4993452;28;20031;-83
2021/10/08 01:54:16;;;;;;;0.15;0.15;;;;;;;;;;4995059;28;20069;-82
2021/10/08 01:56:45;;;;;;;0.10;0.10;;;;;;;;;;4991755;28;20025;-82
2021/10/08 01:59:12;;;;;;;0.57;0.57;;;;;;;;;;4992631;28;20576;-83
2021/10/08 02:01:38;;;;;;;0.10;0.10;;;;;;;;;;4991594;28;20142;-83
2021/10/08 02:04:04;;;;;;;1.67;0.40;;;;;;;;;;4999249;28;20129;-82
2021/10/08 02:06:30;;;;;;;0.13;0.13;;;;;;;;;;4995539;28;20538;-83
2021/10/08 02:08:56;;;;;;;0.00;0.00;;;;;;;;;;4994173;28;20025;-83
2021/10/08 02:11:23;;;;;;;0.20;0.20;;;;;;;;;;4991877;28;20026;-82
2021/10/08 02:13:49;;;;;;;0.10;0.10;;;;;;;;;;4994096;28;20057;-82
2021/10/08 02:16:15;;;;;;;0.32;0.32;;;;;;;;;;5001030;28;20040;-83
2021/10/08 02:18:41;;;;;;;0.20;0.20;;;;;;;;;;4990997;28;20054;-84
2021/10/08 02:21:07;;;;;;;0.10;0.10;;;;;;;;;;4994260;28;20084;-83
2021/10/08 02:23:33;;;;;;;0.15;0.13;;;;;;;;;;4994938;28;20029;-84
2021/10/08 02:25:59;;;;;;;0.15;0.15;;;;;;;;;;4997829;28;20042;-84
2021/10/08 02:28:25;;;;;;;0.05;0.05;;;;;;;;;;5003469;28;20022;-84
2021/10/08 02:30:51;;;;;;;0.52;0.52;;;;;;;;;;5001684;28;20049;-83
2021/10/08 02:33:17;;;;;;;0.00;0.00;;;;;;;;;;4997874;28;20456;-82
2021/10/08 02:35:43;;;;;;;0.00;0.00;;;;;;;;;;4997338;28;20033;-83
2021/10/08 02:38:09;;;;;;;0.10;0.10;;;;;;;;;;5002080;28;20820;-83
2021/10/08 02:40:35;;;;;;;0.70;0.63;;;;;;;;;;5005117;28;20426;-82
2021/10/08 02:43:02;;;;;;;0.10;0.10;;;;;;;;;;5002493;28;20034;-83
2021/10/08 02:45:28;;;;;;;0.10;0.10;;;;;;;;;;5001747;28;20120;-83
2021/10/08 02:47:54;;;;;;;0.10;0.10;;;;;;;;;;4999644;28;20038;-83
2021/10/08 02:50:21;;;;;;;0.10;0.10;;;;;;;;;;4995273;28;20030;-83
2021/10/08 02:52:47;;;;;;;0.07;0.07;;;;;;;;;;4996521;28;20038;-83
2021/10/08 02:55:13;;;;;;;0.00;0.00;;;;;;;;;;5002955;28;20081;-83
2021/10/08 02:57:39;;;;;;;0.07;0.07;;;;;;;;;;5000373;28;20038;-83
2021/10/08 03:00:06;;;;;;;0.20;0.20;;;;;;;;;;4999994;28;20777;-84
2021/10/08 03:02:32;;;;;;;;;;;;;;;;;;4997778;28;20065;-83
2021/10/08 03:04:58;;;;;;;0.10;0.10;;;;;;;;;;5003769;28;19952;-83
2021/10/08 03:07:24;;;;;;;0.00;0.00;;;;;;;;;;5000133;28;20045;-83
2021/10/08 03:09:50;;;;;;;0.30;0.30;;;;;;;;;;5003026;28;20116;-82
2021/10/08 03:12:16;;;;;;;0.25;0.25;;;;;;;;;;4992423;28;20030;-83
2021/10/08 03:14:42;;;;;;;0.90;0.90;;;;;;;;;;4996274;28;20453;-84
2021/10/08 03:17:09;;;;;;;1.13;1.13;;;;;;;;;;5000363;28;20515;-84
2021/10/08 03:19:35;;;;;;;0.32;0.32;;;;;;;;;;5001813;28;20058;-83
2021/10/08 03:22:01;;;;;;;0.17;0.17;;;;;;;;;;5002883;28;20482;-82
2021/10/08 03:24:28;;;;;;;0.10;0.10;;;;;;;;;;4996554;28;20053;-82
2021/10/08 03:26:54;;;;;;;0.20;0.20;;;;;;;;;;4994095;28;20101;-83
2021/10/08 03:29:20;;;;;;;0.82;0.40;;;;;;;;;;4996082;28;20026;-85
2021/10/08 03:31:47;;;;;;;0.10;0.10;;;;;;;;;;4997221;28;20491;-84
2021/10/08 03:34:13;;;;;;;0.10;0.10;;;;;;;;;;4996991;28;20057;-83
2021/10/08 03:36:45;;;;;;;0.10;0.10;;;;;;;;;;4995640;28;20058;-82
2021/10/08 03:39:15;;;;;;;0.20;0.20;;;;;;;;;;4996118;28;20026;-83
2021/10/08 03:41:42;;;;;;;0.30;0.30;;;;;;;;;;4998436;28;20605;-83
2021/10/08 03:44:09;;;;;;;1.20;1.10;;;;;;;;;;4996996;28;20026;-83
2021/10/08 03:46:51;;;;;;;0.10;0.10;;;;;;;;;;5002138;28;20027;-82
2021/10/08 03:49:17;;;;;;;0.10;0.10;;;;;;;;;;5002018;28;20034;-82
2021/10/08 03:51:44;;;;;;;0.00;0.00;;;;;;;;;;5001348;28;20030;-83
2021/10/08 03:54:10;;;;;;;;;;;;;;;;;;4999371;28;20422;-82
2021/10/08 03:56:37;;;;;;;0.22;0.22;;;;;;;;;;4997063;28;19920;-82
2021/10/08 03:59:03;;;;;;;0.22;0.15;;;;;;;;;;4999772;28;20045;-82
2021/10/08 04:01:29;;;;;;;0.10;0.10;;;;;;;;;;4998366;28;20797;-82
2021/10/08 04:03:56;;;;;;;0.00;0.00;;;;;;;;;;5002120;28;20131;-82
2021/10/08 04:06:22;;;;;;;0.10;0.10;;;;;;;;;;5000763;28;20739;-82
2021/10/08 04:08:48;;;;;;;0.13;0.13;;;;;;;;;;4997356;28;20781;-82
2021/10/08 04:11:15;;;;;;;0.10;0.10;;;;;;;;;;5003029;28;20374;-82
2021/10/08 04:13:41;;;;;;;0.00;0.00;;;;;;;;;;4998505;28;20572;-81
2021/10/08 04:16:07;;;;;;;0.10;0.10;;;;;;;;;;4996524;28;20105;-81
2021/10/08 04:18:33;;;;;;;0.10;0.10;;;;;;;;;;5002448;28;20048;-82
2021/10/08 04:20:59;;;;;;;0.27;0.27;;;;;;;;;;4996196;28;20041;-81
2021/10/08 04:23:25;;;;;;;0.65;0.28;;;;;;;;;;4996869;28;20028;-82
2021/10/08 04:25:51;;;;;;;0.00;0.00;;;;;;;;;;4997994;28;20034;-82
2021/10/08 04:28:17;;;;;;;0.05;0.05;;;;;;;;;;5002343;28;20030;-82
2021/10/08 04:30:44;;;;;;;0.20;0.20;;;;;;;;;;5000151;28;20133;-82
2021/10/08 04:33:17;;;;;;;0.13;0.13;;;;;;;;;;5000357;28;20045;-82
2021/10/08 04:35:43;;;;;;;0.22;0.22;;;;;;;;;;4999310;28;20041;-82
2021/10/08 04:38:09;;;;;;;0.30;0.20;;;;;;;;;;4999094;28;20317;-82
2021/10/08 04:40:35;;;;;;;0.10;0.10;;;;;;;;;;5003347;28;20029;-82
2021/10/08 04:43:02;;;;;;;0.38;0.38;;;;;;;;;;4999975;28;20030;-82
2021/10/08 04:45:28;;;;;;;0.13;0.13;;;;;;;;;;5002218;28;20034;-82
2021/10/08 04:47:54;;;;;;;0.20;0.20;;;;;;;;;;4996347;28;20423;-82
2021/10/08 04:50:20;;;;;;;0.17;0.15;;;;;;;;;;4997202;28;20564;-81
2021/10/08 04:52:46;;;;;;;0.10;0.10;;;;;;;;;;4995806;28;20101;-82
2021/10/08 04:55:12;;;;;;;0.20;0.20;;;;;;;;;;4996581;28;20113;-82
2021/10/08 04:57:38;;;;;;;1.17;0.28;;;;;;;;;;4992461;28;20054;-82
2021/10/08 05:00:05;;;;;;;0.10;0.10;;;;;;;;;;4997640;28;20559;-82
2021/10/08 05:02:31;;;;;;;0.20;0.20;;;;;;;;;;4996784;28;20037;-82
2021/10/08 05:04:57;;;;;;;0.10;0.10;;;;;;;;;;4995003;28;20081;-83
2021/10/08 05:07:23;;;;;;;0.52;0.30;;;;;;;;;;4993486;28;20030;-82
2021/10/08 05:09:50;;;;;;;0.10;0.10;;;;;;;;;;4995585;28;20069;-82
2021/10/08 05:12:16;;;;;;;0.20;0.20;;;;;;;;;;4994016;28;20053;-81
2021/10/08 05:14:42;;;;;;;0.17;0.17;;;;;;;;;;4993508;28;20029;-81
2021/10/08 05:17:08;;;;;;;0.15;0.15;;;;;;;;;;5002725;28;20464;-82
2021/10/08 05:19:34;;;;;;;5.60;1.83;;;;;;;;;;5001216;28;20046;-85
2021/10/08 05:22:01;;;;;;;0.32;0.28;;;;;;;;;;5003190;28;20510;-84
2021/10/08 05:24:27;;;;;;;0.10;0.10;;;;;;;;;;5003295;28;20038;-85
2021/10/08 05:26:53;;;;;;;0.10;0.10;;;;;;;;;;5002897;28;20092;-84
2021/10/08 05:29:19;;;;;;;0.50;0.50;;;;;;;;;;4997079;28;20455;-84
2021/10/08 05:31:45;;;;;;;1.93;1.80;;;;;;;;;;4995417;28;20855;-84
2021/10/08 05:34:12;;;;;;;0.15;0.15;;;;;;;;;;5002884;28;20449;-83
2021/10/08 05:36:39;;;;;;;0.00;0.00;;;;;;;;;;4999528;28;20030;-83
2021/10/08 05:39:05;;;;;;;0.10;0.10;;;;;;;;;;5003344;28;20034;-84
2021/10/08 05:41:31;;;;;;;0.20;0.20;;;;;;;;;;5002985;28;20519;-83
2021/10/08 05:43:57;;;;;;;0.23;0.23;;;;;;;;;;4996655;28;20508;-84
2021/10/08 05:46:23;;;;;;;0.30;0.30;;;;;;;;;;5000066;28;20270;-84
2021/10/08 05:48:49;;;;;;;0.10;0.10;;;;;;;;;;4995371;28;20538;-83
2021/10/08 05:51:16;;;;;;;0.20;0.20;;;;;;;;;;4993973;28;20027;-83
2021/10/08 05:53:42;;;;;;;0.00;0.00;;;;;;;;;;4991670;28;20099;-82
2021/10/08 05:56:08;;;;;;;0.10;0.10;;;;;;;;;;4990925;28;20499;-76
2021/10/08 05:58:35;;;;;;;0.10;0.10;;;;;;;;;;5005571;28;20317;-77
2021/10/08 06:01:01;;;;;;;0.10;0.10;;;;;;;;;;4988064;28;20826;-75
2021/10/08 06:03:27;;;;;;;0.00;0.00;;;;;;;;;;4987243;28;20034;-83
2021/10/08 06:05:53;;;;;;;0.25;0.25;;;;;;;;;;4987512;28;20026;-81
2021/10/08 06:08:19;;;;;;;0.10;0.10;;;;;;;;;;4985748;28;20030;-83
2021/10/08 06:10:45;;;;;;;0.40;0.40;;;;;;;;;;4986456;28;20140;-82
2021/10/08 06:13:11;;;;;;;0.10;0.10;;;;;;;;;;5001788;28;20037;-83
2021/10/08 06:15:37;;;;;;;0.53;0.53;;;;;;;;;;4995638;28;20058;-82
2021/10/08 06:18:03;;;;;;;2.70;0.93;;;;;;;;;;4985969;28;20030;-82
2021/10/08 06:20:29;;;;;;;0.20;0.20;;;;;;;;;;4999996;28;20062;-83
2021/10/08 06:22:55;;;;;;;0.10;0.10;;;;;;;;;;4986075;28;20029;-82
2021/10/08 06:25:22;;;;;;;0.43;0.27;;;;;;;;;;4987042;28;20051;-82
2021/10/08 06:27:51;;;;;;;0.17;0.17;;;;;;;;;;4986639;28;20033;-82
2021/10/08 06:30:17;;;;;;;0.10;0.10;;;;;;;;;;4990980;28;20285;-83
2021/10/08 06:32:43;;;;;;;0.10;0.10;;;;;;;;;;4985080;28;20533;-83
2021/10/08 06:35:09;;;;;;;0.50;0.40;;;;;;;;;;4986145;28;20053;-83
2021/10/08 06:37:35;;;;;;;0.20;0.20;;;;;;;;;;4988833;28;20018;-81
2021/10/08 06:40:02;;;;;;;0.10;0.10;;;;;;;;;;4987496;28;20034;-83
2021/10/08 06:42:28;;;;;;;0.00;0.00;;;;;;;;;;4998609;28;20510;-83
2021/10/08 06:44:54;;;;;;;0.10;0.10;;;;;;;;;;5002503;28;20111;-83
2021/10/08 06:47:20;;;;;;;0.90;0.85;;;;;;;;;;5001724;28;20152;-88
2021/10/08 06:49:47;;;;;;;0.20;0.20;;;;;;;;;;4984072;28;20040;-86
2021/10/08 06:52:13;;;;;;;0.50;0.30;;;;;;;;;;4989635;28;20293;-84
2021/10/08 06:54:39;;;;;;;0.13;0.13;;;;;;;;;;4989172;28;20045;-85
2021/10/08 06:57:05;;;;;;;0.00;0.00;;;;;;;;;;4989253;28;20072;-84
2021/10/08 06:59:31;;;;;;;0.52;0.52;;;;;;;;;;4985526;28;20037;-83
2021/10/08 07:01:57;;;;;;;1.98;0.50;;;;;;;;;;4988074;28;20034;-85
2021/10/08 07:04:24;;;;;;;0.00;0.00;;;;;;;;;;4990726;28;20026;-84
2021/10/08 07:06:50;;;;;;;0.00;0.00;;;;;;;;;;4999918;28;20490;-83
2021/10/08 07:09:16;;;;;;;0.10;0.10;;;;;;;;;;5001122;28;20099;-82
2021/10/08 07:11:42;;;;;;;0.00;0.00;;;;;;;;;;4991655;28;20113;-80
2021/10/08 07:14:08;;;;;;;0.10;0.10;;;;;;;;;;4989230;28;20069;-80
2021/10/08 07:16:34;;;;;;;0.05;0.05;;;;;;;;;;4990087;28;20030;-81
2021/10/08 07:19:15;;;;;;;0.00;0.00;;;;;;;;;;4990979;28;20065;-79
2021/10/08 07:21:45;;;;;;;22.70;0.40;;;;;;;;;;4992852;28;20089;-79
2021/10/08 07:24:11;;;;;;;0.10;0.10;;;;;;;;;;4990858;28;20121;-79
2021/10/08 07:26:37;;;;;;;0.03;0.03;;;;;;;;;;4993494;28;20630;-80
2021/10/08 07:29:03;;;;;;;0.00;0.00;;;;;;;;;;5005191;28;20076;-81
2021/10/08 07:31:30;;;;;;;0.00;0.00;;;;;;;;;;4999178;28;20037;-80
2021/10/08 07:33:56;;;;;;;0.98;0.98;;;;;;;;;;5003878;28;20042;-80
2021/10/08 07:36:23;;;;;;;0.00;0.00;;;;;;;;;;5004514;28;20045;-80
2021/10/08 07:38:49;;;;;;;;;;;;;;;;;;5005469;28;20038;-80
2021/10/08 07:41:15;;;;;;;0.00;0.00;;;;;;;;;;5003298;28;19992;-80
2021/10/08 07:43:41;;;;;;;0.00;0.00;;;;;;;;;;5006467;28;20946;-80
2021/10/08 07:46:08;;;;;;;0.00;0.00;;;;;;;;;;5004271;28;20057;-80
2021/10/08 07:48:34;;;;;;;0.30;0.30;;;;;;;;;;5004547;28;20169;-80
2021/10/08 07:51:00;;;;;;;1.17;0.28;;;;;;;;;;5004150;28;20523;-80
2021/10/08 07:53:26;;;;;;;0.10;0.10;;;;;;;;;;5004621;28;20026;-80
2021/10/08 07:55:53;;;;;;;0.00;0.00;;;;;;;;;;5004891;28;20128;-80
2021/10/08 07:58:26;;;;;;;0.00;0.00;;;;;;;;;;5004571;28;20491;-80
2021/10/08 08:00:52;;;;;;;0.20;0.20;;;;;;;;;;5003010;28;20546;-80
2021/10/08 08:03:18;;;;;;;0.20;0.20;;;;;;;;;;5004748;28;20061;-79
2021/10/08 08:05:44;;;;;;;1.05;0.95;;;;;;;;;;5004062;28;20022;-80
2021/10/08 08:08:10;;;;;;;0.30;0.30;;;;;;;;;;5004384;28;20050;-80
2021/10/08 08:10:36;;;;;;;0.00;0.00;;;;;;;;;;5006769;28;20111;-80
2021/10/08 08:13:02;;;;;;;0.03;0.03;;;;;;;;;;5004070;28;20128;-80
2021/10/08 08:15:28;;;;;;;0.28;0.13;;;;;;;;;;5004158;28;20030;-80
2021/10/08 08:17:55;;;;;;;0.10;0.10;;;;;;;;;;5003941;28;20092;-80
2021/10/08 08:20:21;;;;;;;0.10;0.10;;;;;;;;;;5003752;28;20050;-80
2021/10/08 08:22:50;;;;;;;0.00;0.00;;;;;;;;;;5004953;28;20380;-79
2021/10/08 08:25:16;;;;;;;0.00;0.00;;;;;;;;;;5005823;28;20040;-80
2021/10/08 08:27:42;;;;;;;0.55;0.20;;;;;;;;;;5002126;28;20032;-80
2021/10/08 08:30:08;;;;;;;0.17;0.17;;;;;;;;;;5004039;28;20108;-80
2021/10/08 08:32:35;;;;;;;0.32;0.32;;;;;;;;;;4994633;28;20121;-80
2021/10/08 08:35:01;;;;;;;0.20;0.20;;;;;;;;;;5003617;28;20038;-80
2021/10/08 08:37:27;;;;;;;0.00;0.00;;;;;;;;;;5005738;28;20141;-80
2021/10/08 08:39:53;;;;;;;0.30;0.15;;;;;;;;;;5003391;28;20029;-81
2021/10/08 08:42:20;;;;;;;0.03;0.03;;;;;;;;;;5002785;28;20578;-80
2021/10/08 08:44:46;;;;;;;0.20;0.20;;;;;;;;;;5004798;28;20037;-80
2021/10/08 08:47:19;;;;;;;0.13;0.13;;;;;;;;;;5002323;28;20030;-80
2021/10/08 08:49:45;;;;;;;0.00;0.00;;;;;;;;;;5003934;28;20034;-80
2021/10/08 08:52:11;;;;;;;0.10;0.10;;;;;;;;;;5004419;28;20394;-80
2021/10/08 08:54:40;;;;;;;0.10;0.10;;;;;;;;;;5004041;28;20064;-81
2021/10/08 08:57:10;;;;;;;0.00;0.00;;;;;;;;;;5003436;28;20022;-80
2021/10/08 08:59:56;;;;;;;0.05;0.05;;;;;;;;;;5002705;28;20037;-80
2021/10/08 09:02:24;;;;;;;0.20;0.20;;;;;;;;;;4989854;28;20037;-80
2021/10/08 09:04:50;;;;;;;0.10;0.10;;;;;;;;;;5004309;28;20069;-81
2021/10/08 09:07:17;;;;;;;0.20;0.20;;;;;;;;;;5005372;28;20119;-80
2021/10/08 09:09:44;;;;;;;0.10;0.10;;;;;;;;;;5004164;28;20108;-79
2021/10/08 09:12:10;;;;;;;;;;;;;;;;;;5003973;28;20067;-79
2021/10/08 09:14:36;;;;;;;0.20;0.20;;;;;;;;;;5003374;28;19960;-80
2021/10/08 09:17:05;;;;;;;0.32;0.25;;;;;;;;;;5002919;28;20840;-80
2021/10/08 09:19:51;;;;;;;0.20;0.20;;;;;;;;;;5004792;28;20068;-80
2021/10/08 09:22:23;;;;;;;0.05;0.05;;;;;;;;;;5004917;28;20041;-79
2021/10/08 09:24:49;;;;;;;0.00;0.00;;;;;;;;;;5003552;28;20592;-80
2021/10/08 09:27:16;;;;;;;0.05;0.05;;;;;;;;;;5003317;28;20518;-80
2021/10/08 09:29:55;;;;;;;0.00;0.00;;;;;;;;;;5001721;28;20044;-80
2021/10/08 09:32:23;;;;;;;0.10;0.10;;;;;;;;;;4989622;28;20104;-80
2021/10/08 09:35:02;;;;;;;0.00;0.00;;;;;;;;;;4987742;28;20088;-81
2021/10/08 09:37:29;;;;;;;0.05;0.05;;;;;;;;;;5003484;28;20030;-81
2021/10/08 09:39:55;;;;;;;0.10;0.10;;;;;;;;;;4987599;28;20037;-80
2021/10/08 09:42:22;;;;;;;0.00;0.00;;;;;;;;;;4988405;28;20022;-80
2021/10/08 09:44:53;;;;;;;0.10;0.10;;;;;;;;;;4987374;28;20115;-80
2021/10/08 09:47:23;;;;;;;0.20;0.20;;;;;;;;;;4986250;28;20050;-80
2021/10/08 09:49:50;;;;;;;0.03;0.03;;;;;;;;;;4984332;28;20030;-80
2021/10/08 09:52:27;;;;;;;0.00;0.00;;;;;;;;;;4985355;28;20038;-80
2021/10/08 09:54:54;;;;;;;7.47;2.45;;;;;;;;;;4987318;28;20080;-80
2021/10/08 09:57:21;;;;;;;0.13;0.13;;;;;;;;;;4987878;28;20034;-80
2021/10/08 09:59:48;;;;;;;0.00;0.00;;;;;;;;;;4987146;28;20120;-80
2021/10/08 10:02:15;;;;;;;0.17;0.17;;;;;;;;;;4986064;28;20028;-80
2021/10/08 10:04:51;;;;;;;0.00;0.00;;;;;;;;;;4986251;28;20030;-80
2021/10/08 10:07:18;;;;;;;0.20;0.20;;;;;;;;;;4989105;28;20199;-80
2021/10/08 10:09:45;;;;;;;0.05;0.05;;;;;;;;;;4987015;28;20112;-80
2021/10/08 10:12:11;;;;;;;0.00;0.00;;;;;;;;;;4989547;28;20034;-80
2021/10/08 10:14:39;;;;;;;0.10;0.10;;;;;;;;;;4986153;28;20821;-80
2021/10/08 10:17:05;;;;;;;0.20;0.20;;;;;;;;;;4983908;28;20105;-80
2021/10/08 10:19:31;;;;;;;0.10;0.10;;;;;;;;;;4985620;28;20050;-81
2021/10/08 10:21:59;;;;;;;0.15;0.15;;;;;;;;;;4985929;28;20027;-80
2021/10/08 10:24:25;;;;;;;0.10;0.10;;;;;;;;;;4986431;28;20769;-80
2021/10/08 10:26:53;;;;;;;0.10;0.10;;;;;;;;;;4986092;28;20616;-81
2021/10/08 10:29:20;;;;;;;0.25;0.22;;;;;;;;;;4986473;28;20438;-80
2021/10/08 10:31:47;;;;;;;0.00;0.00;;;;;;;;;;4989251;28;20069;-81
2021/10/08 10:34:13;;;;;;;0.10;0.10;;;;;;;;;;5003571;28;20804;-81
2021/10/08 10:36:40;;;;;;;0.50;0.22;;;;;;;;;;5002856;28;20636;-80
2021/10/08 10:39:13;;;;;;;0.10;0.10;;;;;;;;;;5002703;28;20034;-81
2021/10/08 10:41:43;;;;;;;0.30;0.30;;;;;;;;;;5002506;28;20029;-81
2021/10/08 10:44:25;;;;;;;0.10;0.10;;;;;;;;;;4986709;28;20507;-80
2021/10/08 10:47:06;;;;;;;0.10;0.10;;;;;;;;;;5000644;28;20040;-80
2021/10/08 10:49:46;;;;;;;0.00;0.00;;;;;;;;;;5006039;28;20037;-80
2021/10/08 10:52:22;;;;;;;0.10;0.10;;;;;;;;;;5007098;28;20084;-80
2021/10/08 10:54:51;;;;;;;0.30;0.30;;;;;;;;;;5006157;28;20049;-81
2021/10/08 10:57:29;;;;;;;0.15;0.15;;;;;;;;;;5005465;28;20026;-80
2021/10/08 11:00:15;;;;;;;0.00;0.00;;;;;;;;;;5005590;28;20399;-81
2021/10/08 11:02:41;;;;;;;0.00;0.00;;;;;;;;;;5005998;28;20022;-80
2021/10/08 11:05:18;;;;;;;0.00;0.00;;;;;;;;;;5006025;28;20040;-80
2021/10/08 11:08:03;;;;;;;0.10;0.10;;;;;;;;;;5004033;28;20057;-81
2021/10/08 11:10:29;;;;;;;0.10;0.10;;;;;;;;;;5008111;28;20038;-81
2021/10/08 11:13:15;;;;;;;0.00;0.00;;;;;;;;;;5003323;28;20034;-81
2021/10/08 11:15:41;;;;;;;0.03;0.03;;;;;;;;;;4992436;28;20046;-81
2021/10/08 11:18:07;;;;;;;0.15;0.15;;;;;;;;;;4990838;28;20066;-83
2021/10/08 11:20:42;;;;;;;0.03;0.03;;;;;;;;;;4990579;28;20136;-83
2021/10/08 11:23:29;;;;;;;0.10;0.10;;;;;;;;;;4991394;28;20447;-83
2021/10/08 11:25:55;;;;;;;;;;;;;;;;;;4988061;28;20030;-83
2021/10/08 11:28:29;;;;;;;0.17;0.13;;;;;;;;;;4990675;28;19996;-82
2021/10/08 11:30:55;;;;;;;0.10;0.10;;;;;;;;;;4989455;28;20419;-83
2021/10/08 11:33:31;;;;;;;0.30;0.30;;;;;;;;;;4992765;28;20491;-83
2021/10/08 11:35:57;;;;;;;0.10;0.10;;;;;;;;;;4991594;28;20033;-83
2021/10/08 11:38:24;;;;;;;0.20;0.20;;;;;;;;;;4988028;28;20041;-83
2021/10/08 11:40:50;;;;;;;0.10;0.10;;;;;;;;;;4988897;28;20276;-82
2021/10/08 11:43:21;;;;;;;0.00;0.00;;;;;;;;;;4990925;28;20080;-82
2021/10/08 11:45:51;;;;;;;0.00;0.00;;;;;;;;;;4990494;28;20041;-83
2021/10/08 11:51:02;;;;;;;0.30;0.30;;;;;;;;;;4988833;28;20073;-82
2021/10/08 11:53:40;;;;;;;0.00;0.00;;;;;;;;;;4993828;28;20805;-83
2021/10/08 11:56:29;;;;;;;0.05;0.05;;;;;;;;;;4990474;28;20506;-83
2021/10/08 11:59:09;;;;;;;0.00;0.00;;;;;;;;;;4988673;28;20037;-83
2021/10/08 12:01:36;;;;;;;0.17;0.17;;;;;;;;;;5005453;28;20463;-83
2021/10/08 12:04:02;;;;;;;0.10;0.10;;;;;;;;;;4992051;28;20034;-83
2021/10/08 12:06:29;;;;;;;0.15;0.15;;;;;;;;;;4994449;28;20022;-82
2021/10/08 12:08:57;;;;;;;0.60;0.47;;;;;;;;;;4990372;28;20425;-83
2021/10/08 12:11:26;;;;;;;0.00;0.00;;;;;;;;;;4992184;28;20037;-83
2021/10/08 12:13:58;;;;;;;0.00;0.00;;;;;;;;;;5004465;28;20038;-83
2021/10/08 12:16:25;;;;;;;0.00;0.00;;;;;;;;;;5005052;28;20030;-83
2021/10/08 12:18:53;;;;;;;0.30;0.30;;;;;;;;;;5004408;28;20060;-82
2021/10/08 12:21:21;;;;;;;0.00;0.00;;;;;;;;;;5004836;28;20052;-83
2021/10/08 12:23:54;;;;;;;0.10;0.10;;;;;;;;;;5004262;28;20033;-82
2021/10/08 12:26:20;;;;;;;0.00;0.00;;;;;;;;;;5004064;28;20049;-83
2021/10/08 12:28:49;;;;;;;0.10;0.10;;;;;;;;;;5005775;28;20069;-83
2021/10/08 12:31:15;;;;;;;0.10;0.10;;;;;;;;;;4988480;28;20121;-82
2021/10/08 12:33:47;;;;;;;0.10;0.10;;;;;;;;;;5003686;28;20403;-83
2021/10/08 12:36:18;;;;;;;0.00;0.00;;;;;;;;;;5004220;28;20115;-83
2021/10/08 12:39:05;;;;;;;0.10;0.10;;;;;;;;;;5004427;28;20087;-82
2021/10/08 12:41:41;;;;;;;0.20;0.20;;;;;;;;;;4994089;28;20053;-82
2021/10/08 12:44:18;;;;;;;0.10;0.10;;;;;;;;;;5004037;28;20760;-82
2021/10/08 12:46:56;;;;;;;0.10;0.10;;;;;;;;;;5002099;28;20407;-83
2021/10/08 12:49:22;;;;;;;0.10;0.10;;;;;;;;;;5006497;28;20050;-83
2021/10/08 12:51:49;;;;;;;0.17;0.17;;;;;;;;;;4998099;28;20200;-82
2021/10/08 12:54:18;;;;;;;0.10;0.10;;;;;;;;;;4996880;28;20049;-83
2021/10/08 12:56:45;;;;;;;0.20;0.20;;;;;;;;;;5002633;28;20059;-82
2021/10/08 12:59:11;;;;;;;;;;;;;;;;;;5004581;28;20105;-83
2021/10/08 13:01:37;;;;;;;0.00;0.00;;;;;;;;;;5005963;28;20717;-82
2021/10/08 13:04:19;;;;;;;0.00;0.00;;;;;;;;;;5003560;28;20034;-82
2021/10/08 13:06:46;;;;;;;0.10;0.10;;;;;;;;;;5003508;28;20036;-82
2021/10/08 13:09:14;;;;;;;;;;;;;;;;;;5004080;28;20034;-83
2021/10/08 13:11:44;;;;;;;0.10;0.10;;;;;;;;;;5002891;28;19971;-82
2021/10/08 13:14:19;;;;;;;0.10;0.10;;;;;;;;;;4988047;28;20096;-83
2021/10/08 13:16:45;;;;;;;0.20;0.20;;;;;;;;;;4993146;28;20057;-83
2021/10/08 13:19:27;;;;;;;0.28;0.10;;;;;;;;;;5003938;28;20517;-81
2021/10/08 13:21:53;;;;;;;0.20;0.20;;;;;;;;;;5003245;28;20030;-82
2021/10/08 13:24:19;;;;;;;0.10;0.10;;;;;;;;;;5002852;28;20034;-82
2021/10/08 13:26:45;;;;;;;0.20;0.20;;;;;;;;;;5003592;28;20584;-82
2021/10/08 13:29:11;;;;;;;0.13;0.13;;;;;;;;;;4996173;28;20399;-82
2021/10/08 13:31:37;;;;;;;0.30;0.10;;;;;;;;;;4992075;28;20026;-82
2021/10/08 13:34:03;;;;;;;0.10;0.10;;;;;;;;;;5002514;28;20111;-83
2021/10/08 13:36:29;;;;;;;0.00;0.00;;;;;;;;;;5002892;28;20277;-83
2021/10/08 13:38:55;;;;;;;0.63;0.30;;;;;;;;;;4996996;28;20030;-82
2021/10/08 13:41:21;;;;;;;0.00;0.00;;;;;;;;;;5002875;28;20026;-82
2021/10/08 13:43:48;;;;;;;0.20;0.20;;;;;;;;;;5004395;28;20084;-84
2021/10/08 13:46:14;;;;;;;0.10;0.10;;;;;;;;;;5004137;28;20029;-83
2021/10/08 13:48:40;;;;;;;0.90;0.52;;;;;;;;;;4991959;28;20034;-82
2021/10/08 13:51:06;;;;;;;0.30;0.30;;;;;;;;;;5007448;28;20122;-83
2021/10/08 13:53:32;;;;;;;0.00;0.00;;;;;;;;;;5003990;28;20486;-83
2021/10/08 13:55:58;;;;;;;0.30;0.30;;;;;;;;;;4998559;28;20050;-82
2021/10/08 13:58:24;;;;;;;0.10;0.10;;;;;;;;;;5003586;28;20116;-82
2021/10/08 14:00:52;;;;;;;0.03;0.03;;;;;;;;;;5002681;28;20089;-83
2021/10/08 14:08:42;;;;;;;0.10;0.10;;;;;;;;;;4989311;28;20212;-83
2021/10/08 14:11:10;;;;;;;0.13;0.10;;;;;;;;;;5001698;28;20034;-82
2021/10/08 14:13:36;;;;;;;0.10;0.10;;;;;;;;;;5004680;28;20065;-82
2021/10/08 14:16:02;;;;;;;0.05;0.05;;;;;;;;;;5001304;28;20125;-82
2021/10/08 14:18:28;;;;;;;0.30;0.20;;;;;;;;;;4985726;28;20061;-82
2021/10/08 14:20:54;;;;;;;0.17;0.17;;;;;;;;;;4987822;28;20038;-82
2021/10/08 14:23:20;;;;;;;0.10;0.10;;;;;;;;;;4986312;28;20042;-82
2021/10/08 14:25:46;;;;;;;0.00;0.00;;;;;;;;;;4989574;28;20715;-83
2021/10/08 14:28:12;;;;;;;0.00;0.00;;;;;;;;;;4991735;28;20487;-83
2021/10/08 14:30:38;;;;;;;0.10;0.10;;;;;;;;;;5005932;28;20490;-83
2021/10/08 14:33:05;;;;;;;0.20;0.20;;;;;;;;;;4998807;28;20029;-83
2021/10/08 14:35:31;;;;;;;0.10;0.10;;;;;;;;;;4990188;28;20050;-83
2021/10/08 14:37:57;;;;;;;0.00;0.00;;;;;;;;;;5003421;28;20030;-83
2021/10/08 14:40:24;;;;;;;0.00;0.00;;;;;;;;;;4991547;28;20574;-84
2021/10/08 14:42:50;;;;;;;1.10;0.52;;;;;;;;;;4990650;28;20056;-83
2021/10/08 14:45:17;;;;;;;0.30;0.30;;;;;;;;;;4990822;28;20034;-82
2021/10/08 14:47:43;;;;;;;0.10;0.10;;;;;;;;;;4990706;28;20350;-82
2021/10/08 14:50:09;;;;;;;0.20;0.20;;;;;;;;;;4993847;28;20031;-82
2021/10/08 14:52:37;;;;;;;0.00;0.00;;;;;;;;;;4989648;28;20045;-82
2021/10/08 14:55:16;;;;;;;0.55;0.30;;;;;;;;;;5005464;28;20034;-83
2021/10/08 15:00:20;;;;;;;0.10;0.10;;;;;;;;;;5003166;28;20132;-83